createdAt,value
2019-01-17T00:00:42.420Z,77.51
2019-01-17T00:10:06.685Z,76.58
2019-01-17T00:16:24.145Z,76.91
2019-01-17T00:19:17.871Z,77.09
2019-01-17T00:22:23.079Z,77.10
2019-01-17T00:25:28.561Z,77.47
2019-01-17T00:28:23.222Z,77.39
2019-01-17T00:50:24.931Z,77.90
2019-01-17T00:53:29.520Z,78.00
2019-01-17T01:02:35.121Z,77.61
2019-01-17T01:05:39.839Z,77.50
2019-01-17T01:08:34.489Z,77.67
2019-01-17T01:11:34.503Z,77.72
2019-01-17T01:14:27.187Z,77.53
2019-01-17T01:39:48.634Z,74.55
2019-01-17T01:42:38.355Z,74.85
2019-01-17T01:45:43.751Z,72.78
2019-01-17T02:01:15.948Z,74.73
2019-01-17T02:04:11.158Z,74.84
2019-01-17T02:06:58.154Z,74.92
2019-01-17T02:09:45.337Z,74.88
2019-01-17T02:19:01.532Z,75.23
2019-01-17T02:24:55.386Z,73.28
2019-01-17T02:27:42.924Z,74.20
2019-01-17T02:30:30.261Z,74.41
2019-01-17T02:33:17.575Z,74.31
2019-01-17T02:36:04.954Z,74.53
2019-01-17T02:38:52.396Z,74.47
2019-01-17T02:41:40.028Z,74.63
2019-01-17T02:44:29.011Z,74.74
2019-01-17T02:47:14.528Z,72.93
2019-01-17T03:05:37.168Z,74.51
2019-01-17T03:17:43.909Z,74.31
2019-01-17T03:20:31.284Z,74.70
2019-01-17T03:23:18.647Z,74.68
2019-01-17T03:32:18.757Z,75.12
2019-01-17T03:50:39.298Z,75.25
2019-01-17T03:53:27.539Z,75.36
2019-01-17T03:56:21.569Z,75.47
2019-01-17T04:05:15.961Z,75.87
2019-01-17T04:11:10.249Z,75.92
2019-01-17T04:13:57.602Z,75.96
2019-01-17T04:16:44.550Z,75.85
2019-01-17T04:19:48.626Z,73.86
2019-01-17T04:22:35.423Z,74.85
2019-01-17T04:25:23.499Z,75.34
2019-01-17T04:40:05.025Z,71.86
2019-01-17T04:49:04.286Z,74.16
2019-01-17T04:51:51.682Z,74.57
2019-01-17T05:07:03.994Z,75.57
2019-01-17T05:09:51.072Z,75.74
2019-01-17T05:12:38.039Z,75.86
2019-01-17T05:15:25.307Z,75.83
2019-01-17T05:18:14.096Z,75.80
2019-01-17T05:21:01.738Z,76.18
2019-01-17T05:23:49.525Z,76.09
2019-01-17T05:26:37.479Z,76.30
2019-01-17T05:29:24.767Z,76.19
2019-01-17T05:32:12.091Z,76.15
2019-01-17T05:34:59.650Z,76.24
2019-01-17T05:37:47.070Z,76.16
2019-01-17T05:43:41.860Z,76.57
2019-01-17T05:52:45.047Z,72.24
2019-01-17T05:55:33.418Z,74.36
2019-01-17T06:07:41.643Z,76.56
2019-01-17T06:10:28.971Z,76.71
2019-01-17T06:13:16.518Z,76.96
2019-01-17T06:16:04.205Z,77.05
2019-01-17T06:18:53.196Z,77.08
2019-01-17T06:21:40.539Z,77.26
2019-01-17T06:27:34.353Z,77.62
2019-01-17T06:30:21.789Z,77.67
2019-01-17T06:33:09.268Z,77.82
2019-01-17T06:35:57.951Z,77.85
2019-01-17T06:38:45.725Z,77.91
2019-01-17T06:41:33.151Z,77.85
2019-01-17T06:44:21.115Z,77.81
2019-01-17T06:47:08.752Z,77.79
2019-01-17T06:49:56.695Z,75.77
2019-01-17T06:52:43.911Z,76.81
2019-01-17T06:55:34.574Z,77.20
2019-01-17T06:58:18.595Z,77.36
2019-01-17T07:01:06.072Z,77.59
2019-01-17T07:03:53.585Z,77.55
2019-01-17T07:06:40.914Z,75.47
2019-01-17T07:09:28.176Z,76.46
2019-01-17T07:12:16.913Z,76.95
2019-01-17T07:15:03.998Z,77.16
2019-01-17T07:24:04.455Z,76.66
2019-01-17T07:26:51.758Z,77.12
2019-01-17T07:42:12.805Z,77.48
2019-01-17T07:45:00.526Z,77.59
2019-01-17T07:50:54.184Z,77.92
2019-01-17T07:53:41.540Z,77.99
2019-01-17T07:56:29.061Z,78.10
2019-01-17T07:59:16.327Z,78.15
2019-01-17T08:05:17.319Z,77.20
2019-01-17T08:08:04.560Z,77.80
2019-01-17T08:10:51.708Z,77.93
2019-01-17T08:16:49.439Z,76.98
2019-01-17T08:22:58.838Z,77.75
2019-01-17T08:25:46.165Z,75.34
2019-01-17T08:28:34.102Z,76.68
2019-01-17T08:31:21.763Z,74.67
2019-01-17T08:34:09.526Z,76.11
2019-01-17T08:43:26.878Z,77.53
2019-01-17T08:46:22.057Z,77.69
2019-01-17T08:49:09.050Z,77.76
2019-01-17T08:51:56.735Z,77.79
2019-01-17T08:54:44.076Z,77.69
2019-01-17T09:10:00.221Z,78.09
2019-01-17T09:15:58.495Z,78.34
2019-01-17T09:18:47.013Z,78.16
2019-01-17T09:30:55.766Z,77.46
2019-01-17T09:33:43.470Z,77.23
2019-01-17T09:36:32.017Z,76.88
2019-01-17T09:39:18.932Z,74.44
2019-01-17T09:42:06.635Z,75.47
2019-01-17T09:44:54.230Z,76.09
2019-01-17T09:47:41.694Z,76.34
2019-01-17T09:50:28.958Z,76.65
2019-01-17T09:53:16.124Z,76.78
2019-01-17T10:05:24.057Z,77.48
2019-01-17T10:08:11.219Z,77.53
2019-01-17T10:10:59.661Z,77.59
2019-01-17T10:13:46.677Z,77.51
2019-01-17T10:36:25.095Z,77.24
2019-01-17T11:06:46.725Z,76.66
2019-01-17T11:09:57.329Z,76.67
2019-01-17T11:16:16.491Z,76.11
2019-01-17T11:19:34.785Z,75.98
2019-01-17T11:28:43.863Z,75.71
2019-01-17T11:31:47.338Z,75.72
2019-01-17T11:34:37.470Z,75.64
2019-01-17T11:37:49.766Z,75.63
2019-01-17T11:47:32.539Z,71.11
2019-01-17T11:57:10.131Z,69.73
2019-01-17T12:03:49.751Z,72.59
2019-01-17T12:06:37.666Z,68.46
2019-01-17T12:09:25.783Z,70.21
2019-01-17T12:12:15.048Z,71.36
2019-01-17T12:15:02.700Z,71.77
2019-01-17T12:17:53.526Z,72.09
2019-01-17T12:20:41.229Z,72.50
2019-01-17T12:23:28.196Z,72.56
2019-01-17T12:26:16.884Z,72.86
2019-01-17T12:29:06.034Z,72.33
2019-01-17T12:31:53.090Z,72.39
2019-01-17T12:34:40.468Z,72.30
2019-01-17T12:37:28.100Z,72.40
2019-01-17T12:40:17.006Z,72.46
2019-01-17T12:43:16.568Z,72.60
2019-01-17T12:46:04.647Z,72.70
2019-01-17T12:48:52.441Z,72.22
2019-01-17T12:51:40.075Z,71.88
2019-01-17T12:54:27.744Z,71.76
2019-01-17T12:57:16.270Z,70.91
2019-01-17T13:00:07.668Z,71.06
2019-01-17T13:05:56.987Z,70.25
2019-01-17T13:08:45.168Z,70.02
2019-01-17T13:11:35.346Z,69.94
2019-01-17T13:14:22.899Z,69.84
2019-01-17T13:17:10.275Z,70.27
2019-01-17T13:19:57.483Z,67.07
2019-01-17T13:22:44.831Z,68.54
2019-01-17T13:25:32.232Z,69.68
2019-01-17T13:28:19.567Z,69.98
2019-01-17T13:31:06.900Z,70.77
2019-01-17T13:33:54.537Z,71.44
2019-01-17T13:36:41.748Z,72.07
2019-01-17T13:39:28.950Z,71.88
2019-01-17T13:42:20.814Z,71.80
2019-01-17T13:45:03.684Z,71.82
2019-01-17T13:47:51.831Z,71.83
2019-01-17T13:50:38.680Z,70.55
2019-01-17T13:53:26.118Z,70.00
2019-01-17T13:56:29.317Z,69.91
2019-01-17T13:59:16.745Z,69.98
2019-01-17T14:02:06.026Z,70.37
2019-01-17T14:04:52.943Z,70.46
2019-01-17T14:07:40.851Z,70.90
2019-01-17T14:10:28.260Z,69.44
2019-01-17T14:13:15.664Z,69.34
2019-01-17T14:16:04.350Z,69.37
2019-01-17T14:18:52.062Z,68.90
2019-01-17T14:21:39.658Z,69.16
2019-01-17T14:24:27.176Z,70.03
2019-01-17T14:27:14.850Z,69.77
2019-01-17T14:33:08.311Z,69.45
2019-01-17T14:35:55.645Z,70.16
2019-01-17T14:38:43.079Z,70.11
2019-01-17T14:41:31.310Z,70.69
2019-01-17T14:44:18.540Z,70.53
2019-01-17T14:47:06.347Z,70.29
2019-01-17T14:49:56.874Z,70.95
2019-01-17T14:52:44.136Z,70.98
2019-01-17T14:55:31.086Z,71.46
2019-01-17T14:58:21.457Z,71.52
2019-01-17T15:01:08.942Z,71.46
2019-01-17T15:07:08.719Z,71.62
2019-01-17T15:09:55.978Z,71.25
2019-01-17T15:12:43.786Z,71.77
2019-01-17T15:15:33.295Z,72.07
2019-01-17T15:18:23.811Z,72.25
2019-01-17T15:21:11.265Z,72.27
2019-01-17T15:27:05.733Z,72.95
2019-01-17T15:33:00.923Z,73.14
2019-01-17T15:35:48.950Z,73.51
2019-01-17T15:38:36.210Z,73.89
2019-01-17T15:41:28.495Z,73.99
2019-01-17T15:44:11.753Z,73.88
2019-01-17T15:46:59.154Z,74.04
2019-01-17T15:49:57.706Z,74.33
2019-01-17T15:52:46.427Z,74.30
2019-01-17T15:55:34.771Z,74.35
2019-01-17T15:58:22.350Z,74.30
2019-01-17T16:07:43.165Z,73.15
2019-01-17T16:10:30.583Z,73.36
2019-01-17T16:13:19.378Z,74.10
2019-01-17T16:16:06.983Z,73.78
2019-01-17T16:18:55.117Z,71.37
2019-01-17T16:21:43.628Z,73.09
2019-01-17T16:27:43.043Z,73.80
2019-01-17T16:30:33.450Z,73.59
2019-01-17T16:33:23.382Z,73.55
2019-01-17T16:36:10.423Z,73.42
2019-01-17T16:38:57.811Z,73.44
2019-01-17T16:41:45.025Z,73.45
2019-01-17T16:44:32.761Z,74.05
2019-01-17T16:47:21.957Z,74.83
2019-01-17T16:50:13.214Z,75.32
2019-01-17T16:53:03.175Z,75.58
2019-01-17T16:55:51.070Z,76.18
2019-01-17T16:58:38.782Z,77.41
2019-01-17T17:01:29.205Z,79.80
2019-01-17T17:04:20.164Z,81.46
2019-01-17T17:13:26.306Z,84.63
2019-01-17T17:16:14.047Z,84.86
2019-01-17T17:19:01.667Z,84.71
2019-01-17T17:34:19.564Z,83.31
2019-01-17T17:37:07.710Z,84.06
2019-01-17T17:39:54.983Z,84.45
2019-01-17T17:42:44.705Z,84.51
2019-01-17T17:45:33.839Z,84.73
2019-01-17T17:48:25.602Z,84.84
2019-01-17T17:54:33.167Z,85.06
2019-01-17T17:57:25.856Z,84.91
2019-01-17T18:00:22.454Z,85.02
2019-01-17T18:03:11.548Z,85.01
2019-01-17T18:05:58.589Z,84.97
2019-01-17T18:08:45.565Z,85.03
2019-01-17T18:11:34.281Z,85.00
2019-01-17T18:14:22.097Z,85.16
2019-01-17T18:17:09.656Z,83.46
2019-01-17T18:19:58.361Z,84.08
2019-01-17T18:22:45.417Z,82.67
2019-01-17T18:25:37.586Z,83.43
2019-01-17T18:28:27.936Z,83.95
2019-01-17T18:31:35.299Z,84.46
2019-01-17T18:34:33.726Z,84.82
2019-01-17T18:37:24.555Z,84.98
2019-01-17T18:40:15.192Z,85.17
2019-01-17T18:43:04.580Z,85.44
2019-01-17T18:46:01.495Z,84.24
2019-01-17T18:51:58.701Z,86.15
2019-01-17T18:54:56.827Z,86.39
2019-01-17T18:57:46.806Z,86.64
2019-01-17T19:00:35.036Z,86.80
2019-01-17T19:03:25.668Z,86.93
2019-01-17T19:06:17.716Z,87.03
2019-01-17T19:09:05.200Z,85.53
2019-01-17T19:11:53.916Z,86.24
2019-01-17T19:14:43.966Z,86.81
2019-01-17T19:17:35.078Z,86.87
2019-01-17T19:29:55.251Z,87.36
2019-01-17T19:32:44.735Z,87.40
2019-01-17T19:35:33.859Z,87.30
2019-01-17T19:38:26.174Z,87.31
2019-01-17T19:41:23.337Z,87.19
2019-01-17T19:44:12.446Z,85.42
2019-01-17T19:53:22.300Z,86.14
2019-01-17T19:56:10.990Z,86.18
2019-01-17T19:59:03.291Z,84.69
2019-01-17T20:01:54.152Z,85.06
2019-01-17T20:07:58.119Z,85.36
2019-01-17T20:10:56.640Z,85.48
2019-01-17T20:13:54.210Z,85.56
2019-01-17T20:16:42.950Z,83.98
2019-01-17T20:19:30.484Z,84.53
2019-01-17T20:22:26.742Z,84.98
2019-01-17T20:25:13.965Z,85.14
2019-01-17T20:28:04.488Z,85.40
2019-01-17T20:30:59.142Z,85.56
2019-01-17T20:33:55.179Z,85.70
2019-01-17T20:36:56.721Z,85.77
2019-01-17T20:39:46.507Z,85.78
2019-01-17T20:42:35.512Z,85.79
2019-01-17T20:45:25.549Z,85.65
2019-01-17T20:48:13.013Z,85.63
2019-01-17T20:51:00.345Z,85.57
2019-01-17T20:53:48.223Z,85.44
2019-01-17T21:02:53.374Z,85.27
2019-01-17T21:05:41.289Z,83.83
2019-01-17T21:08:29.199Z,84.85
2019-01-17T21:11:21.699Z,85.40
2019-01-17T21:14:15.880Z,85.97
2019-01-17T21:17:06.110Z,86.33
2019-01-17T21:19:53.820Z,86.57
2019-01-17T21:22:41.413Z,86.73
2019-01-17T21:25:32.226Z,86.85
2019-01-17T21:28:20.547Z,86.79
2019-01-17T21:31:10.177Z,86.82
2019-01-17T21:33:58.913Z,86.87
2019-01-17T21:36:49.748Z,85.50
2019-01-17T21:39:36.354Z,86.01
2019-01-17T21:45:45.116Z,86.30
2019-01-17T21:48:33.233Z,86.17
2019-01-17T21:51:20.692Z,86.04
2019-01-17T21:54:10.854Z,85.96
2019-01-17T21:57:01.526Z,84.54
2019-01-17T21:59:57.857Z,84.96
2019-01-17T22:02:45.758Z,85.11
2019-01-17T22:05:37.854Z,85.15
2019-01-17T22:08:27.020Z,85.28
2019-01-17T22:11:17.492Z,85.31
2019-01-17T22:14:10.826Z,85.28
2019-01-17T22:17:01.042Z,85.28
2019-01-17T22:19:52.611Z,85.37
2019-01-17T22:22:42.359Z,85.26
2019-01-17T22:28:42.876Z,85.12
2019-01-17T22:31:34.714Z,85.05
2019-01-17T22:34:23.051Z,84.92
2019-01-17T22:37:12.884Z,84.76
2019-01-17T22:40:00.179Z,84.67
2019-01-17T22:42:47.687Z,83.12
2019-01-17T22:45:35.760Z,83.31
2019-01-17T22:48:24.279Z,83.50
2019-01-17T22:51:12.023Z,83.40
2019-01-17T22:53:59.550Z,83.48
2019-01-17T22:56:54.540Z,82.07
2019-01-17T22:59:42.213Z,82.42
2019-01-17T23:02:33.732Z,82.47
2019-01-17T23:05:21.835Z,82.61
2019-01-17T23:08:09.599Z,82.46
2019-01-17T23:10:57.337Z,82.27
2019-01-17T23:13:44.895Z,80.73
2019-01-17T23:16:36.471Z,81.14
2019-01-17T23:19:24.493Z,81.29
2019-01-17T23:22:18.043Z,81.32
2019-01-17T23:25:09.594Z,81.46
2019-01-17T23:28:01.092Z,81.47
2019-01-17T23:30:50.527Z,79.91
2019-01-17T23:33:41.535Z,80.56
2019-01-17T23:36:30.740Z,81.04
2019-01-17T23:39:19.597Z,81.19
2019-01-17T23:42:06.817Z,81.29
2019-01-17T23:44:55.961Z,79.99
2019-01-17T23:47:46.482Z,80.72
2019-01-17T23:50:39.601Z,79.32
2019-01-17T23:53:27.509Z,80.37
2019-01-17T23:56:21.303Z,78.99
2019-01-17T23:59:11.963Z,80.04
